Station Historical Data
Daily Summary for August 27, 2017 Units:  English    Metric   Both
« Previous Day
Next Day »
Daily Weekly Monthly Yearly Custom
  High: Low: Average:
Temperature: 76.8 °F 49.8 °F 63.7 °F
Dew Point: 56.8 °F 46.6 °F 51.8 °F
Humidity: 89% 45% 67%
Wind Speed: 14.0mph 0.0mph 2.6mph
Wind Gust: 18.0mph - -
Wind- - East
Pressure: 30.29 in 30.16 in -
Precipitation: 0.00 in    
Historical Graphs
 
 
Tabular Data for August 27, 2017
Time Temperature Dew Point Pressure Wind Wind Speed Wind Gust Humidity Rainfall Rate (Hourly)
00:04 56.8 °F 50.4 °F 30.29 in Calm     79% 0.00 in
00:09 56.8 °F 50.4 °F 30.29 in Calm     79% 0.00 in
00:14 56.7 °F 50.3 °F 30.29 in Calm     79% 0.00 in
00:19 56.6 °F 50.2 °F 30.29 in Calm     79% 0.00 in
00:24 56.5 °F 50.1 °F 30.29 in Calm     79% 0.00 in
00:29 56.4 °F 50.0 °F 30.29 in Calm   2.0 mph 79% 0.00 in
00:34 56.4 °F 50.0 °F 30.29 in Calm   2.0 mph 79% 0.00 in
00:39 56.3 °F 50.2 °F 30.29 in Calm   2.0 mph 80% 0.00 in
00:44 56.1 °F 50.0 °F 30.29 in Calm     80% 0.00 in
00:49 55.9 °F 49.8 °F 30.29 in Calm     80% 0.00 in
00:54 55.7 °F 49.6 °F 30.29 in Calm     80% 0.00 in
00:59 55.5 °F 49.8 °F 30.29 in Calm     81% 0.00 in
01:05 55.4 °F 49.7 °F 30.29 in Calm     81% 0.00 in
01:10 55.3 °F 49.9 °F 30.29 in Calm     82% 0.00 in
01:15 55.2 °F 49.8 °F 30.29 in Calm     82% 0.00 in
01:20 55.2 °F 49.8 °F 30.29 in Calm     82% 0.00 in
01:25 55.1 °F 49.7 °F 30.29 in Calm   1.0 mph 82% 0.00 in
01:30 55.1 °F 49.7 °F 30.29 in Calm   2.0 mph 82% 0.00 in
01:35 55.1 °F 49.7 °F 30.29 in Calm   2.0 mph 82% 0.00 in
01:40 55.0 °F 49.6 °F 30.29 in Calm     82% 0.00 in
01:45 54.8 °F 49.4 °F 30.29 in Calm     82% 0.00 in
01:50 54.7 °F 49.3 °F 30.29 in Calm     82% 0.00 in
01:55 54.6 °F 49.2 °F 30.29 in Calm     82% 0.00 in
02:00 54.5 °F 49.1 °F 30.29 in Calm     82% 0.00 in
02:05 54.4 °F 49.0 °F 30.28 in Calm   2.0 mph 82% 0.00 in
02:10 54.3 °F 49.2 °F 30.28 in Calm     83% 0.00 in
02:15 54.3 °F 48.9 °F 30.28 in Calm     82% 0.00 in
02:20 54.1 °F 49.1 °F 30.28 in Calm     83% 0.00 in
02:25 54.1 °F 49.1 °F 30.28 in Calm     83% 0.00 in
02:30 54.1 °F 48.7 °F 30.28 in Calm   1.0 mph 82% 0.00 in
02:35 54.1 °F 48.7 °F 30.28 in Calm   1.0 mph 82% 0.00 in
02:40 53.8 °F 48.4 °F 30.28 in Calm   1.0 mph 82% 0.00 in
02:45 53.5 °F 48.5 °F 30.28 in Calm     83% 0.00 in
02:50 53.4 °F 48.4 °F 30.28 in Calm     83% 0.00 in
02:55 53.3 °F 48.3 °F 30.28 in Calm     83% 0.00 in
03:00 53.2 °F 48.5 °F 30.28 in Calm     84% 0.00 in
03:05 53.2 °F 48.5 °F 30.28 in Calm     84% 0.00 in
03:10 53.0 °F 48.3 °F 30.28 in Calm     84% 0.00 in
03:15 53.0 °F 48.3 °F 30.28 in Calm     84% 0.00 in
03:20 52.9 °F 48.2 °F 30.28 in Calm     84% 0.00 in
03:25 52.8 °F 48.1 °F 30.28 in Calm     84% 0.00 in
03:30 52.8 °F 48.4 °F 30.28 in Calm     85% 0.00 in
03:35 52.6 °F 48.2 °F 30.28 in Calm     85% 0.00 in
03:40 52.5 °F 48.1 °F 30.28 in Calm     85% 0.00 in
03:45 52.5 °F 48.1 °F 30.28 in Calm     85% 0.00 in
03:50 52.3 °F 47.9 °F 30.28 in Calm     85% 0.00 in
03:55 52.2 °F 48.1 °F 30.28 in Calm     86% 0.00 in
04:00 52.0 °F 47.9 °F 30.27 in Calm     86% 0.00 in
04:05 51.8 °F 47.7 °F 30.27 in Calm     86% 0.00 in
04:10 51.8 °F 47.7 °F 30.27 in Calm     86% 0.00 in
04:15 51.8 °F 47.7 °F 30.27 in Calm     86% 0.00 in
04:20 51.8 °F 47.7 °F 30.27 in Calm     86% 0.00 in
04:25 51.9 °F 47.8 °F 30.27 in Calm     86% 0.00 in
04:30 51.8 °F 48.1 °F 30.27 in Calm     87% 0.00 in
04:35 51.8 °F 48.1 °F 30.27 in Calm     87% 0.00 in
04:40 51.6 °F 47.9 °F 30.27 in Calm     87% 0.00 in
04:45 51.4 °F 47.4 °F 30.27 in Calm     86% 0.00 in
04:50 51.1 °F 47.4 °F 30.27 in Calm     87% 0.00 in
04:55 50.8 °F 47.1 °F 30.28 in Calm     87% 0.00 in
05:00 50.6 °F 47.2 °F 30.27 in Calm     88% 0.00 in
05:05 50.6 °F 47.2 °F 30.27 in Calm     88% 0.00 in
05:10 50.7 °F 47.3 °F 30.27 in Calm     88% 0.00 in
05:15 50.7 °F 47.3 °F 30.27 in Calm     88% 0.00 in
05:20 50.5 °F 47.1 °F 30.27 in Calm     88% 0.00 in
05:25 50.5 °F 47.1 °F 30.27 in Calm     88% 0.00 in
05:30 50.4 °F 47.0 °F 30.27 in Calm     88% 0.00 in
05:35 50.3 °F 46.9 °F 30.27 in Calm     88% 0.00 in
05:40 50.1 °F 47.0 °F 30.27 in Calm     89% 0.00 in
05:44 50.0 °F 46.6 °F 30.27 in Calm     88% 0.00 in
05:49 50.0 °F 46.9 °F 30.27 in Calm     89% 0.00 in
05:55 49.9 °F 46.8 °F 30.27 in Calm     89% 0.00 in
06:00 49.8 °F 46.7 °F 30.27 in Calm     89% 0.00 in
06:05 49.8 °F 46.7 °F 30.28 in Calm     89% 0.00 in
06:10 50.1 °F 47.0 °F 30.28 in Calm     89% 0.00 in
06:15 50.4 °F 47.3 °F 30.28 in Calm     89% 0.00 in
06:20 50.5 °F 47.4 °F 30.28 in Calm     89% 0.00 in
06:24 50.6 °F 47.5 °F 30.28 in Calm   2.0 mph 89% 0.00 in
06:29 50.7 °F 47.6 °F 30.28 in Calm     89% 0.00 in
06:34 50.8 °F 47.7 °F 30.28 in Calm     89% 0.00 in
06:40 50.8 °F 47.4 °F 30.28 in Calm   2.0 mph 88% 0.00 in
06:45 50.8 °F 47.4 °F 30.28 in Calm   1.0 mph 88% 0.00 in
06:50 50.9 °F 47.5 °F 30.28 in Calm     88% 0.00 in
06:54 51.0 °F 47.6 °F 30.28 in Calm     88% 0.00 in
07:00 50.9 °F 47.5 °F 30.28 in Calm     88% 0.00 in
07:05 51.1 °F 47.7 °F 30.28 in Calm     88% 0.00 in
07:10 51.2 °F 47.8 °F 30.28 in Calm     88% 0.00 in
07:15 51.3 °F 47.6 °F 30.28 in Calm     87% 0.00 in
07:20 51.5 °F 47.8 °F 30.28 in Calm   5.0 mph 87% 0.00 in
07:24 51.8 °F 48.1 °F 30.28 in East 1.0 mph 5.0 mph 87% 0.00 in
07:30 52.1 °F 48.0 °F 30.28 in East 1.0 mph 5.0 mph 86% 0.00 in
07:35 52.3 °F 48.2 °F 30.28 in ENE 1.0 mph 6.0 mph 86% 0.00 in
07:40 52.6 °F 48.5 °F 30.28 in ENE 1.0 mph 6.0 mph 86% 0.00 in
07:44 53.0 °F 48.6 °F 30.28 in Calm   2.0 mph 85% 0.00 in
07:50 53.5 °F 48.8 °F 30.28 in ENE 2.0 mph 5.0 mph 84% 0.00 in
07:55 54.0 °F 49.3 °F 30.28 in East 2.0 mph 3.0 mph 84% 0.00 in
07:59 54.4 °F 49.3 °F 30.28 in East 2.0 mph 5.0 mph 83% 0.00 in
08:04 55.0 °F 49.6 °F 30.28 in East 2.0 mph 5.0 mph 82% 0.00 in
08:10 55.7 °F 49.6 °F 30.28 in East 2.0 mph 5.0 mph 80% 0.00 in
08:15 56.3 °F 49.9 °F 30.28 in East 3.0 mph 5.0 mph 79% 0.00 in
08:20 56.9 °F 50.1 °F 30.28 in Calm   4.0 mph 78% 0.00 in
08:25 57.6 °F 50.4 °F 30.28 in East 2.0 mph 5.0 mph 77% 0.00 in
08:29 58.2 °F 50.7 °F 30.28 in ENE 2.0 mph 5.0 mph 76% 0.00 in
08:35 58.7 °F 50.4 °F 30.27 in East 2.0 mph 7.0 mph 74% 0.00 in
08:40 59.2 °F 50.9 °F 30.27 in East 3.0 mph 7.0 mph 74% 0.00 in
08:45 60.1 °F 51.0 °F 30.28 in East 2.0 mph 5.0 mph 72% 0.00 in
08:50 60.5 °F 51.0 °F 30.28 in East 2.0 mph 7.0 mph 71% 0.00 in
08:55 60.7 °F 51.6 °F 30.28 in East 2.0 mph 7.0 mph 72% 0.00 in
08:59 61.1 °F 51.6 °F 30.28 in East 3.0 mph 6.0 mph 71% 0.00 in
09:05 61.6 °F 51.7 °F 30.27 in NE 3.0 mph 6.0 mph 70% 0.00 in
09:09 62.1 °F 52.2 °F 30.27 in East 1.0 mph 6.0 mph 70% 0.00 in
09:15 62.5 °F 52.2 °F 30.27 in ENE 2.0 mph 6.0 mph 69% 0.00 in
09:20 62.8 °F 52.5 °F 30.27 in Calm   5.0 mph 69% 0.00 in
09:25 63.6 °F 53.2 °F 30.27 in ENE 3.0 mph 4.0 mph 69% 0.00 in
09:30 64.1 °F 53.3 °F 30.27 in East 2.0 mph 5.0 mph 68% 0.00 in
09:35 64.3 °F 53.5 °F 30.27 in ESE 2.0 mph 5.0 mph 68% 0.00 in
09:40 65.2 °F 54.4 °F 30.27 in ESE 1.0 mph 5.0 mph 68% 0.00 in
09:45 65.5 °F 53.4 °F 30.27 in East 1.0 mph 7.0 mph 65% 0.00 in
09:50 65.8 °F 54.5 °F 30.27 in East 2.0 mph 7.0 mph 67% 0.00 in
09:55 66.4 °F 53.8 °F 30.27 in ESE 3.0 mph 7.0 mph 64% 0.00 in
09:59 66.7 °F 53.7 °F 30.27 in ESE 1.0 mph 6.0 mph 63% 0.00 in
10:04 67.5 °F 54.5 °F 30.27 in SSE 6.0 mph 6.0 mph 63% 0.00 in
10:10 68.2 °F 54.7 °F 30.27 in ESE 2.0 mph 8.0 mph 62% 0.00 in
10:15 68.3 °F 53.9 °F 30.27 in SSE 4.0 mph 10.0 mph 60% 0.00 in
10:20 68.9 °F 54.4 °F 30.27 in ESE 2.0 mph 6.0 mph 60% 0.00 in
10:24 69.6 °F 54.2 °F 30.27 in East 3.0 mph 8.0 mph 58% 0.00 in
10:30 69.4 °F 54.0 °F 30.27 in SSE 5.0 mph 8.0 mph 58% 0.00 in
10:34 70.0 °F 54.1 °F 30.27 in SE 3.0 mph 8.0 mph 57% 0.00 in
10:39 69.8 °F 54.4 °F 30.26 in ESE 3.0 mph 8.0 mph 58% 0.00 in
10:44 70.1 °F 55.6 °F 30.26 in ESE 3.0 mph 8.0 mph 60% 0.00 in
10:50 70.9 °F 56.8 °F 30.26 in ESE 2.0 mph 6.0 mph 61% 0.00 in
10:55 71.6 °F 55.6 °F 30.26 in ESE 2.0 mph 5.0 mph 57% 0.00 in
11:00 71.6 °F 55.6 °F 30.26 in East 5.0 mph 7.0 mph 57% 0.00 in
11:04 71.3 °F 55.3 °F 30.26 in ESE 3.0 mph 7.0 mph 57% 0.00 in
11:10 71.4 °F 54.4 °F 30.26 in East 4.0 mph 11.0 mph 55% 0.00 in
11:14 72.0 °F 53.9 °F 30.26 in ESE 4.0 mph 6.0 mph 53% 0.00 in
11:19 71.6 °F 54.1 °F 30.26 in SSE 4.0 mph 7.0 mph 54% 0.00 in
11:24 72.2 °F 55.6 °F 30.26 in SE 6.0 mph 7.0 mph 56% 0.00 in
11:29 72.3 °F 53.7 °F 30.26 in SSE 4.0 mph 8.0 mph 52% 0.00 in
11:34 72.5 °F 53.9 °F 30.26 in SE 4.0 mph 9.0 mph 52% 0.00 in
11:40 72.8 °F 55.2 °F 30.25 in SE 4.0 mph 13.0 mph 54% 0.00 in
11:44 72.9 °F 53.7 °F 30.25 in ESE 4.0 mph 13.0 mph 51% 0.00 in
11:50 73.2 °F 54.0 °F 30.25 in ESE 4.0 mph 8.0 mph 51% 0.00 in
11:55 73.6 °F 54.9 °F 30.25 in SE 4.0 mph 9.0 mph 52% 0.00 in
12:00 73.5 °F 53.2 °F 30.25 in South 5.0 mph 10.0 mph 49% 0.00 in
12:05 73.6 °F 53.8 °F 30.25 in ESE 1.0 mph 8.0 mph 50% 0.00 in
12:09 74.4 °F 53.4 °F 30.25 in ESE 3.0 mph 9.0 mph 48% 0.00 in
12:14 73.7 °F 51.6 °F 30.25 in East 4.0 mph 9.0 mph 46% 0.00 in
12:19 74.4 °F 53.4 °F 30.25 in SE 4.0 mph 6.0 mph 48% 0.00 in
12:24 74.5 °F 54.1 °F 30.25 in East 6.0 mph 7.0 mph 49% 0.00 in
12:30 74.3 °F 52.2 °F 30.24 in SE 3.0 mph 9.0 mph 46% 0.00 in
12:34 74.8 °F 54.4 °F 30.25 in SE 1.0 mph 7.0 mph 49% 0.00 in
12:39 74.9 °F 53.3 °F 30.24 in ESE 3.0 mph 8.0 mph 47% 0.00 in
12:44 74.6 °F 54.7 °F 30.24 in SE 3.0 mph 8.0 mph 50% 0.00 in
12:49 75.6 °F 55.1 °F 30.24 in SE 3.0 mph 9.0 mph 49% 0.00 in
12:55 75.1 °F 53.5 °F 30.24 in East 3.0 mph 9.0 mph 47% 0.00 in
12:59 74.2 °F 52.7 °F 30.24 in East 3.0 mph 9.0 mph 47% 0.00 in
13:04 74.8 °F 53.8 °F 30.24 in South 2.0 mph 7.0 mph 48% 0.00 in
13:09 75.5 °F 53.9 °F 30.24 in ESE 3.0 mph 8.0 mph 47% 0.00 in
13:15 74.6 °F 51.9 °F 30.24 in ESE 4.0 mph 8.0 mph 45% 0.00 in
13:20 73.9 °F 53.5 °F 30.23 in ESE 3.0 mph 8.0 mph 49% 0.00 in
13:24 75.4 °F 53.2 °F 30.23 in SSE 3.0 mph 7.0 mph 46% 0.00 in
13:30 75.2 °F 54.2 °F 30.23 in South 3.0 mph 7.0 mph 48% 0.00 in
13:34 74.8 °F 53.2 °F 30.23 in ENE 5.0 mph 8.0 mph 47% 0.00 in
13:39 75.2 °F 54.7 °F 30.22 in ENE 3.0 mph 8.0 mph 49% 0.00 in
13:44 75.2 °F 53.6 °F 30.22 in ESE 3.0 mph 8.0 mph 47% 0.00 in
13:49 74.8 °F 53.2 °F 30.23 in East 2.0 mph 7.0 mph 47% 0.00 in
13:54 74.6 °F 53.6 °F 30.22 in NNE 2.0 mph 8.0 mph 48% 0.00 in
13:59 74.7 °F 54.8 °F 30.22 in ESE 3.0 mph 7.0 mph 50% 0.00 in
14:04 75.1 °F 55.2 °F 30.22 in East 5.0 mph 9.0 mph 50% 0.00 in
14:10 74.7 °F 53.1 °F 30.22 in NE 4.0 mph 8.0 mph 47% 0.00 in
14:14 74.5 °F 53.5 °F 30.22 in ENE 4.0 mph 10.0 mph 48% 0.00 in
14:19 75.4 °F 53.8 °F 30.22 in East 4.0 mph 10.0 mph 47% 0.00 in
14:24 75.5 °F 53.3 °F 30.22 in SSE 4.0 mph 9.0 mph 46% 0.00 in
14:29 75.6 °F 52.8 °F 30.21 in SSE 4.0 mph 8.0 mph 45% 0.00 in
14:35 75.4 °F 56.0 °F 30.21 in East 4.0 mph 11.0 mph 51% 0.00 in
14:40 74.9 °F 55.0 °F 30.21 in NE 3.0 mph 12.0 mph 50% 0.00 in
14:44 75.1 °F 55.2 °F 30.21 in NE 6.0 mph 8.0 mph 50% 0.00 in
14:49 75.9 °F 54.2 °F 30.21 in SSE 5.0 mph 7.0 mph 47% 0.00 in
14:54 76.3 °F 54.0 °F 30.21 in Calm   5.0 mph 46% 0.00 in
14:59 76.3 °F 56.3 °F 30.21 in Calm   7.0 mph 50% 0.00 in
15:04 76.3 °F 55.2 °F 30.21 in South 2.0 mph 7.0 mph 48% 0.00 in
15:09 76.5 °F 54.2 °F 30.20 in South 1.0 mph 4.0 mph 46% 0.00 in
15:14 76.8 °F 55.0 °F 30.20 in SE 3.0 mph 9.0 mph 47% 0.00 in
15:19 76.2 °F 55.1 °F 30.20 in East 5.0 mph 11.0 mph 48% 0.00 in
15:24 75.5 °F 55.0 °F 30.20 in ENE 6.0 mph 11.0 mph 49% 0.00 in
15:29 75.2 °F 55.3 °F 30.20 in ESE 5.0 mph 10.0 mph 50% 0.00 in
15:35 75.4 °F 54.3 °F 30.19 in ENE 7.0 mph 11.0 mph 48% 0.00 in
15:39 75.3 °F 55.9 °F 30.19 in ENE 8.0 mph 9.0 mph 51% 0.00 in
15:44 75.7 °F 55.2 °F 30.19 in ENE 4.0 mph 9.0 mph 49% 0.00 in
15:49 75.6 °F 54.5 °F 30.19 in ENE 5.0 mph 10.0 mph 48% 0.00 in
15:55 76.5 °F 54.8 °F 30.19 in NE 5.0 mph 13.0 mph 47% 0.00 in
16:00 76.3 °F 54.6 °F 30.19 in NE 5.0 mph 13.0 mph 47% 0.00 in
16:04 76.4 °F 54.7 °F 30.18 in East 5.0 mph 13.0 mph 47% 0.00 in
16:09 76.6 °F 54.9 °F 30.18 in NE 7.0 mph 11.0 mph 47% 0.00 in
16:14 76.2 °F 55.1 °F 30.18 in SE 3.0 mph 13.0 mph 48% 0.00 in
16:19 75.9 °F 54.8 °F 30.18 in North 3.0 mph 12.0 mph 48% 0.00 in
16:24 76.2 °F 56.2 °F 30.18 in NE 12.0 mph 13.0 mph 50% 0.00 in
16:29 75.9 °F 54.8 °F 30.18 in ENE 14.0 mph 14.0 mph 48% 0.00 in
16:34 75.2 °F 54.2 °F 30.18 in NE 4.0 mph 15.0 mph 48% 0.00 in
16:39 74.6 °F 54.7 °F 30.17 in NNE 6.0 mph 11.0 mph 50% 0.00 in
16:44 74.3 °F 53.9 °F 30.18 in ENE 6.0 mph 12.0 mph 49% 0.00 in
16:49 73.9 °F 54.1 °F 30.17 in ENE 7.0 mph 14.0 mph 50% 0.00 in
16:54 74.5 °F 54.1 °F 30.17 in NE 7.0 mph 14.0 mph 49% 0.00 in
16:59 74.4 °F 54.0 °F 30.17 in NE 7.0 mph 14.0 mph 49% 0.00 in
17:04 74.6 °F 54.2 °F 30.17 in ENE 7.0 mph 15.0 mph 49% 0.00 in
17:10 74.6 °F 54.2 °F 30.17 in ENE 5.0 mph 13.0 mph 49% 0.00 in
17:14 74.6 °F 54.2 °F 30.17 in ENE 6.0 mph 13.0 mph 49% 0.00 in
17:19 74.5 °F 54.1 °F 30.17 in East 3.0 mph 11.0 mph 49% 0.00 in
17:24 74.1 °F 53.7 °F 30.17 in ENE 5.0 mph 14.0 mph 49% 0.00 in
17:29 73.7 °F 53.3 °F 30.16 in ENE 9.0 mph 13.0 mph 49% 0.00 in
17:34 73.5 °F 53.7 °F 30.16 in NE 6.0 mph 14.0 mph 50% 0.00 in
17:39 73.1 °F 52.8 °F 30.16 in ENE 4.0 mph 18.0 mph 49% 0.00 in
17:44 72.8 °F 53.1 °F 30.17 in NE 7.0 mph 18.0 mph 50% 0.00 in
17:49 72.8 °F 52.0 °F 30.17 in ENE 7.0 mph 13.0 mph 48% 0.00 in
17:54 72.7 °F 51.9 °F 30.17 in NE 8.0 mph 15.0 mph 48% 0.00 in
17:59 72.4 °F 51.6 °F 30.17 in NE 9.0 mph 17.0 mph 48% 0.00 in
18:04 72.3 °F 51.5 °F 30.17 in NE 9.0 mph 17.0 mph 48% 0.00 in
18:09 72.2 °F 51.4 °F 30.17 in East 6.0 mph 13.0 mph 48% 0.00 in
18:14 72.1 °F 51.9 °F 30.18 in ESE 8.0 mph 14.0 mph 49% 0.00 in
18:19 72.0 °F 51.8 °F 30.18 in ENE 7.0 mph 14.0 mph 49% 0.00 in
18:24 72.0 °F 51.8 °F 30.17 in ENE 6.0 mph 13.0 mph 49% 0.00 in
18:29 71.9 °F 51.7 °F 30.17 in ENE 6.0 mph 13.0 mph 49% 0.00 in
18:35 71.7 °F 51.0 °F 30.17 in ENE 7.0 mph 16.0 mph 48% 0.00 in
18:39 71.3 °F 51.1 °F 30.17 in ENE 8.0 mph 16.0 mph 49% 0.00 in
18:44 71.2 °F 51.6 °F 30.17 in East 9.0 mph 10.0 mph 50% 0.00 in
18:49 70.9 °F 51.3 °F 30.17 in ENE 4.0 mph 11.0 mph 50% 0.00 in
18:54 70.7 °F 51.1 °F 30.17 in ENE 5.0 mph 11.0 mph 50% 0.00 in
18:59 70.5 °F 51.5 °F 30.17 in ENE 5.0 mph 9.0 mph 51% 0.00 in
19:04 70.3 °F 51.3 °F 30.17 in East 3.0 mph 15.0 mph 51% 0.00 in
19:09 69.9 °F 51.5 °F 30.17 in NE 6.0 mph 11.0 mph 52% 0.00 in
19:14 69.6 °F 51.7 °F 30.17 in ENE 7.0 mph 13.0 mph 53% 0.00 in
19:19 69.4 °F 52.0 °F 30.17 in ENE 2.0 mph 10.0 mph 54% 0.00 in
19:24 69.2 °F 53.3 °F 30.17 in ENE 5.0 mph 13.0 mph 57% 0.00 in
19:29 69.0 °F 53.6 °F 30.17 in ENE 6.0 mph 13.0 mph 58% 0.00 in
19:34 68.7 °F 53.8 °F 30.17 in ENE 6.0 mph 13.0 mph 59% 0.00 in
19:39 68.4 °F 54.0 °F 30.17 in ENE 6.0 mph 11.0 mph 60% 0.00 in
19:44 68.1 °F 54.1 °F 30.17 in NE 7.0 mph 12.0 mph 61% 0.00 in
19:49 67.8 °F 54.3 °F 30.17 in East 8.0 mph 10.0 mph 62% 0.00 in
19:54 67.5 °F 54.5 °F 30.17 in ENE 6.0 mph 12.0 mph 63% 0.00 in
19:59 67.3 °F 54.7 °F 30.18 in ENE 5.0 mph 12.0 mph 64% 0.00 in
20:04 67.0 °F 54.8 °F 30.18 in ENE 5.0 mph 10.0 mph 65% 0.00 in
20:09 66.8 °F 54.7 °F 30.18 in NE 3.0 mph 10.0 mph 65% 0.00 in
20:14 66.6 °F 54.5 °F 30.18 in NE 2.0 mph 10.0 mph 65% 0.00 in
20:19 66.3 °F 54.6 °F 30.18 in NE 2.0 mph 9.0 mph 66% 0.00 in
20:24 66.0 °F 54.7 °F 30.19 in NE 4.0 mph 7.0 mph 67% 0.00 in
20:29 65.8 °F 54.5 °F 30.19 in NE 4.0 mph 8.0 mph 67% 0.00 in
20:34 65.6 °F 54.3 °F 30.19 in NE 4.0 mph 8.0 mph 67% 0.00 in
20:39 65.4 °F 54.6 °F 30.19 in ENE 3.0 mph 8.0 mph 68% 0.00 in
20:44 65.2 °F 54.4 °F 30.19 in ENE 3.0 mph 8.0 mph 68% 0.00 in
20:49 65.0 °F 54.2 °F 30.19 in ENE 3.0 mph 8.0 mph 68% 0.00 in
20:54 64.8 °F 54.4 °F 30.20 in Calm   4.0 mph 69% 0.00 in
20:59 64.6 °F 54.2 °F 30.19 in NE 1.0 mph 5.0 mph 69% 0.00 in
21:04 64.4 °F 54.4 °F 30.19 in ENE 1.0 mph 9.0 mph 70% 0.00 in
21:09 64.3 °F 54.3 °F 30.19 in NE 1.0 mph 7.0 mph 70% 0.00 in
21:14 64.1 °F 54.1 °F 30.19 in ENE 1.0 mph 7.0 mph 70% 0.00 in
21:19 64.0 °F 54.4 °F 30.19 in ENE 1.0 mph 5.0 mph 71% 0.00 in
21:24 63.8 °F 54.2 °F 30.19 in ENE 3.0 mph 7.0 mph 71% 0.00 in
21:29 63.7 °F 54.1 °F 30.19 in ENE 3.0 mph 13.0 mph 71% 0.00 in
21:34 63.6 °F 54.0 °F 30.20 in East 3.0 mph 13.0 mph 71% 0.00 in
21:39 63.3 °F 54.1 °F 30.20 in ENE 2.0 mph 8.0 mph 72% 0.00 in
21:44 63.1 °F 54.3 °F 30.20 in ENE 2.0 mph 8.0 mph 73% 0.00 in
21:49 62.9 °F 54.1 °F 30.19 in ENE 3.0 mph 8.0 mph 73% 0.00 in
21:55 62.7 °F 54.3 °F 30.19 in East 4.0 mph 8.0 mph 74% 0.00 in
22:04 62.4 °F 54.0 °F 30.19 in ENE 4.0 mph 8.0 mph 74% 0.00 in
22:09 62.2 °F 53.8 °F 30.19 in ENE 4.0 mph 5.0 mph 74% 0.00 in
22:14 62.1 °F 54.1 °F 30.18 in ENE 3.0 mph 7.0 mph 75% 0.00 in
22:19 62.0 °F 53.6 °F 30.18 in NE 3.0 mph 9.0 mph 74% 0.00 in
22:24 61.9 °F 53.5 °F 30.18 in NE 2.0 mph 9.0 mph 74% 0.00 in
22:29 61.9 °F 53.5 °F 30.18 in ENE 2.0 mph 7.0 mph 74% 0.00 in
22:34 61.9 °F 53.1 °F 30.18 in ENE 3.0 mph 7.0 mph 73% 0.00 in
22:39 61.8 °F 53.1 °F 30.18 in ENE 3.0 mph 9.0 mph 73% 0.00 in
22:44 61.9 °F 53.1 °F 30.18 in East 3.0 mph 9.0 mph 73% 0.00 in
22:49 61.8 °F 52.7 °F 30.18 in East 4.0 mph 10.0 mph 72% 0.00 in
22:54 61.7 °F 52.6 °F 30.19 in East 4.0 mph 10.0 mph 72% 0.00 in
22:59 61.6 °F 52.9 °F 30.19 in ENE 3.0 mph 7.0 mph 73% 0.00 in
23:04 61.4 °F 52.7 °F 30.19 in ENE 4.0 mph 8.0 mph 73% 0.00 in
23:09 61.2 °F 52.5 °F 30.19 in East 2.0 mph 8.0 mph 73% 0.00 in
23:14 61.1 °F 52.4 °F 30.19 in East 1.0 mph 5.0 mph 73% 0.00 in
23:19 60.8 °F 52.1 °F 30.19 in East 1.0 mph 3.0 mph 73% 0.00 in
23:24 60.7 °F 52.0 °F 30.19 in ENE 2.0 mph 7.0 mph 73% 0.00 in
23:29 60.6 °F 52.3 °F 30.19 in East 3.0 mph 5.0 mph 74% 0.00 in
23:34 60.5 °F 52.2 °F 30.19 in East 1.0 mph 6.0 mph 74% 0.00 in
23:39 60.4 °F 52.1 °F 30.19 in ENE 2.0 mph 6.0 mph 74% 0.00 in
23:44 60.4 °F 52.1 °F 30.19 in ENE 2.0 mph 5.0 mph 74% 0.00 in
23:49 60.3 °F 52.0 °F 30.20 in ENE 1.0 mph 7.0 mph 74% 0.00 in
23:54 60.1 °F 51.8 °F 30.19 in East 1.0 mph 7.0 mph 74% 0.00 in
23:59 60.0 °F 51.7 °F 30.20 in Calm   3.0 mph 74% 0.00 in
Buffalo, New York, USA
Compliments of Weather Underground - 2.5 mb